sensor_id;sensor_type;location;lat;lon;timestamp;P1;durP1;ratioP1;P2;durP2;ratioP2
18693;SDS011;9477;51.414;10.362;2022-11-15T00:00:06;14.83;;;8.43;;
18693;SDS011;9477;51.414;10.362;2022-11-15T00:02:10;9.63;;;7.33;;
18693;SDS011;9477;51.414;10.362;2022-11-15T00:04:13;11.50;;;8.00;;
18693;SDS011;9477;51.414;10.362;2022-11-15T00:06:16;10.87;;;7.70;;
18693;SDS011;9477;51.414;10.362;2022-11-15T00:08:18;10.67;;;7.73;;
18693;SDS011;9477;51.414;10.362;2022-11-15T00:10:21;9.57;;;7.80;;
18693;SDS011;9477;51.414;10.362;2022-11-15T00:12:24;11.07;;;7.70;;
18693;SDS011;9477;51.414;10.362;2022-11-15T00:14:30;13.87;;;7.93;;
18693;SDS011;9477;51.414;10.362;2022-11-15T00:16:33;12.03;;;7.43;;
18693;SDS011;9477;51.414;10.362;2022-11-15T00:18:35;10.33;;;7.77;;
18693;SDS011;9477;51.414;10.362;2022-11-15T00:20:40;9.90;;;7.50;;
18693;SDS011;9477;51.414;10.362;2022-11-15T00:22:42;9.87;;;7.27;;
18693;SDS011;9477;51.414;10.362;2022-11-15T00:24:45;10.77;;;7.20;;
18693;SDS011;9477;51.414;10.362;2022-11-15T00:26:48;11.47;;;7.53;;
18693;SDS011;9477;51.414;10.362;2022-11-15T00:28:51;11.43;;;7.53;;
18693;SDS011;9477;51.414;10.362;2022-11-15T00:31:00;7.77;;;6.60;;
18693;SDS011;9477;51.414;10.362;2022-11-15T00:33:04;8.90;;;6.97;;
18693;SDS011;9477;51.414;10.362;2022-11-15T00:35:07;8.33;;;6.07;;
18693;SDS011;9477;51.414;10.362;2022-11-15T00:37:10;7.10;;;5.93;;
18693;SDS011;9477;51.414;10.362;2022-11-15T00:39:13;9.30;;;6.30;;
18693;SDS011;9477;51.414;10.362;2022-11-15T00:41:16;9.07;;;6.50;;
18693;SDS011;9477;51.414;10.362;2022-11-15T00:43:19;8.03;;;5.87;;
18693;SDS011;9477;51.414;10.362;2022-11-15T00:45:22;10.30;;;5.83;;
18693;SDS011;9477;51.414;10.362;2022-11-15T00:47:26;10.47;;;5.73;;
18693;SDS011;9477;51.414;10.362;2022-11-15T00:49:29;8.83;;;5.83;;
18693;SDS011;9477;51.414;10.362;2022-11-15T00:51:32;10.37;;;5.80;;
18693;SDS011;9477;51.414;10.362;2022-11-15T00:53:34;6.90;;;5.23;;
18693;SDS011;9477;51.414;10.362;2022-11-15T00:55:37;9.97;;;5.83;;
18693;SDS011;9477;51.414;10.362;2022-11-15T00:57:40;7.27;;;5.17;;
18693;SDS011;9477;51.414;10.362;2022-11-15T00:59:43;8.30;;;5.30;;
18693;SDS011;9477;51.414;10.362;2022-11-15T01:01:46;8.13;;;5.47;;
18693;SDS011;9477;51.414;10.362;2022-11-15T01:03:50;8.93;;;5.40;;
18693;SDS011;9477;51.414;10.362;2022-11-15T01:06:00;8.73;;;5.20;;
18693;SDS011;9477;51.414;10.362;2022-11-15T01:08:03;6.87;;;5.40;;
18693;SDS011;9477;51.414;10.362;2022-11-15T01:10:06;9.10;;;5.07;;
18693;SDS011;9477;51.414;10.362;2022-11-15T01:12:09;8.10;;;5.30;;
18693;SDS011;9477;51.414;10.362;2022-11-15T01:14:12;7.30;;;5.40;;
18693;SDS011;9477;51.414;10.362;2022-11-15T01:16:16;8.47;;;5.50;;
18693;SDS011;9477;51.414;10.362;2022-11-15T01:18:20;6.83;;;5.30;;
18693;SDS011;9477;51.414;10.362;2022-11-15T01:20:24;6.00;;;4.37;;
18693;SDS011;9477;51.414;10.362;2022-11-15T01:22:27;5.93;;;4.73;;
18693;SDS011;9477;51.414;10.362;2022-11-15T01:24:30;6.90;;;5.20;;
18693;SDS011;9477;51.414;10.362;2022-11-15T01:26:33;8.10;;;5.40;;
18693;SDS011;9477;51.414;10.362;2022-11-15T01:28:36;7.67;;;5.53;;
18693;SDS011;9477;51.414;10.362;2022-11-15T01:30:40;7.60;;;5.40;;
18693;SDS011;9477;51.414;10.362;2022-11-15T01:32:43;7.40;;;5.13;;
18693;SDS011;9477;51.414;10.362;2022-11-15T01:34:46;8.40;;;5.30;;
18693;SDS011;9477;51.414;10.362;2022-11-15T01:36:50;7.67;;;5.27;;
18693;SDS011;9477;51.414;10.362;2022-11-15T01:38:53;9.17;;;5.77;;
18693;SDS011;9477;51.414;10.362;2022-11-15T01:40:56;8.73;;;5.47;;
18693;SDS011;9477;51.414;10.362;2022-11-15T01:45:21;6.83;;;5.33;;
18693;SDS011;9477;51.414;10.362;2022-11-15T01:47:24;11.27;;;5.17;;
18693;SDS011;9477;51.414;10.362;2022-11-15T01:49:30;6.93;;;5.20;;
18693;SDS011;9477;51.414;10.362;2022-11-15T01:51:36;7.03;;;5.30;;
18693;SDS011;9477;51.414;10.362;2022-11-15T01:53:40;9.73;;;5.40;;
18693;SDS011;9477;51.414;10.362;2022-11-15T01:55:46;6.17;;;4.77;;
18693;SDS011;9477;51.414;10.362;2022-11-15T01:57:52;6.07;;;5.10;;
18693;SDS011;9477;51.414;10.362;2022-11-15T01:59:57;6.17;;;4.50;;
18693;SDS011;9477;51.414;10.362;2022-11-15T02:02:02;6.90;;;5.13;;
18693;SDS011;9477;51.414;10.362;2022-11-15T02:04:06;6.83;;;4.90;;
18693;SDS011;9477;51.414;10.362;2022-11-15T02:06:15;7.40;;;5.10;;
18693;SDS011;9477;51.414;10.362;2022-11-15T02:08:18;5.93;;;4.53;;
18693;SDS011;9477;51.414;10.362;2022-11-15T02:10:23;8.00;;;5.43;;
18693;SDS011;9477;51.414;10.362;2022-11-15T02:12:27;6.53;;;4.60;;
18693;SDS011;9477;51.414;10.362;2022-11-15T02:14:32;7.40;;;5.03;;
18693;SDS011;9477;51.414;10.362;2022-11-15T02:16:39;7.73;;;4.40;;
18693;SDS011;9477;51.414;10.362;2022-11-15T02:18:50;6.27;;;4.17;;
18693;SDS011;9477;51.414;10.362;2022-11-15T02:21:09;7.73;;;5.03;;
18693;SDS011;9477;51.414;10.362;2022-11-15T02:26:11;9.83;;;4.90;;
18693;SDS011;9477;51.414;10.362;2022-11-15T02:28:44;7.73;;;5.40;;
18693;SDS011;9477;51.414;10.362;2022-11-15T02:30:55;7.10;;;4.67;;
18693;SDS011;9477;51.414;10.362;2022-11-15T02:33:09;8.60;;;5.47;;
18693;SDS011;9477;51.414;10.362;2022-11-15T02:35:22;6.50;;;4.77;;
18693;SDS011;9477;51.414;10.362;2022-11-15T02:37:37;9.27;;;5.50;;
18693;SDS011;9477;51.414;10.362;2022-11-15T02:39:46;7.40;;;5.40;;
18693;SDS011;9477;51.414;10.362;2022-11-15T02:41:54;10.60;;;5.67;;
18693;SDS011;9477;51.414;10.362;2022-11-15T02:44:01;10.77;;;5.73;;
18693;SDS011;9477;51.414;10.362;2022-11-15T02:46:08;9.47;;;5.73;;
18693;SDS011;9477;51.414;10.362;2022-11-15T02:48:17;7.10;;;5.63;;
18693;SDS011;9477;51.414;10.362;2022-11-15T02:50:20;8.87;;;5.93;;
18693;SDS011;9477;51.414;10.362;2022-11-15T02:52:27;7.73;;;5.47;;
18693;SDS011;9477;51.414;10.362;2022-11-15T02:54:30;7.07;;;6.10;;
18693;SDS011;9477;51.414;10.362;2022-11-15T02:56:34;10.00;;;7.03;;
18693;SDS011;9477;51.414;10.362;2022-11-15T03:01:11;8.20;;;5.97;;
18693;SDS011;9477;51.414;10.362;2022-11-15T03:03:36;8.70;;;6.83;;
18693;SDS011;9477;51.414;10.362;2022-11-15T03:05:50;9.57;;;6.07;;
18693;SDS011;9477;51.414;10.362;2022-11-15T03:08:00;13.40;;;6.23;;
18693;SDS011;9477;51.414;10.362;2022-11-15T03:10:08;11.07;;;7.33;;
18693;SDS011;9477;51.414;10.362;2022-11-15T03:12:18;10.30;;;7.23;;
18693;SDS011;9477;51.414;10.362;2022-11-15T03:14:28;9.30;;;7.30;;
18693;SDS011;9477;51.414;10.362;2022-11-15T03:16:38;11.77;;;7.63;;
18693;SDS011;9477;51.414;10.362;2022-11-15T03:18:47;12.87;;;7.40;;
18693;SDS011;9477;51.414;10.362;2022-11-15T03:20:54;10.50;;;6.80;;
18693;SDS011;9477;51.414;10.362;2022-11-15T03:23:01;11.10;;;7.40;;
18693;SDS011;9477;51.414;10.362;2022-11-15T03:25:08;12.10;;;8.47;;
18693;SDS011;9477;51.414;10.362;2022-11-15T03:27:17;11.23;;;7.73;;
18693;SDS011;9477;51.414;10.362;2022-11-15T03:29:24;11.63;;;8.30;;
18693;SDS011;9477;51.414;10.362;2022-11-15T03:31:32;12.17;;;8.30;;
18693;SDS011;9477;51.414;10.362;2022-11-15T03:33:53;10.43;;;7.53;;
18693;SDS011;9477;51.414;10.362;2022-11-15T03:35:59;13.27;;;8.73;;
18693;SDS011;9477;51.414;10.362;2022-11-15T03:38:04;11.77;;;8.70;;
18693;SDS011;9477;51.414;10.362;2022-11-15T03:40:11;15.77;;;8.70;;
18693;SDS011;9477;51.414;10.362;2022-11-15T03:42:17;11.60;;;8.23;;
18693;SDS011;9477;51.414;10.362;2022-11-15T03:44:27;11.80;;;8.30;;
18693;SDS011;9477;51.414;10.362;2022-11-15T03:46:39;11.60;;;7.47;;
18693;SDS011;9477;51.414;10.362;2022-11-15T03:48:49;12.37;;;7.47;;
18693;SDS011;9477;51.414;10.362;2022-11-15T03:50:56;12.27;;;7.67;;
18693;SDS011;9477;51.414;10.362;2022-11-15T03:52:59;12.73;;;7.90;;
18693;SDS011;9477;51.414;10.362;2022-11-15T03:55:03;10.67;;;7.30;;
18693;SDS011;9477;51.414;10.362;2022-11-15T03:57:09;13.33;;;7.33;;
18693;SDS011;9477;51.414;10.362;2022-11-15T03:59:11;9.43;;;7.03;;
18693;SDS011;9477;51.414;10.362;2022-11-15T04:01:14;10.10;;;6.93;;
18693;SDS011;9477;51.414;10.362;2022-11-15T04:03:17;12.33;;;6.90;;
18693;SDS011;9477;51.414;10.362;2022-11-15T04:05:21;10.03;;;7.00;;
18693;SDS011;9477;51.414;10.362;2022-11-15T04:07:24;10.93;;;7.00;;
18693;SDS011;9477;51.414;10.362;2022-11-15T04:09:28;9.87;;;6.67;;
18693;SDS011;9477;51.414;10.362;2022-11-15T04:11:31;11.80;;;6.73;;
18693;SDS011;9477;51.414;10.362;2022-11-15T04:13:33;9.93;;;6.33;;
18693;SDS011;9477;51.414;10.362;2022-11-15T04:15:36;7.43;;;5.87;;
18693;SDS011;9477;51.414;10.362;2022-11-15T04:17:40;8.83;;;6.47;;
18693;SDS011;9477;51.414;10.362;2022-11-15T04:19:44;9.50;;;5.77;;
18693;SDS011;9477;51.414;10.362;2022-11-15T04:22:08;9.23;;;5.80;;
18693;SDS011;9477;51.414;10.362;2022-11-15T04:24:28;9.10;;;5.50;;
18693;SDS011;9477;51.414;10.362;2022-11-15T04:26:31;8.47;;;5.53;;
18693;SDS011;9477;51.414;10.362;2022-11-15T04:28:34;7.57;;;5.83;;
18693;SDS011;9477;51.414;10.362;2022-11-15T04:30:57;5.97;;;4.87;;
18693;SDS011;9477;51.414;10.362;2022-11-15T04:33:00;7.23;;;5.00;;
18693;SDS011;9477;51.414;10.362;2022-11-15T04:35:03;6.20;;;4.73;;
18693;SDS011;9477;51.414;10.362;2022-11-15T04:37:08;11.57;;;5.77;;
18693;SDS011;9477;51.414;10.362;2022-11-15T04:39:12;12.80;;;6.10;;
18693;SDS011;9477;51.414;10.362;2022-11-15T04:41:17;10.77;;;6.43;;
18693;SDS011;9477;51.414;10.362;2022-11-15T04:43:20;8.33;;;6.67;;
18693;SDS011;9477;51.414;10.362;2022-11-15T04:45:23;8.90;;;6.30;;
18693;SDS011;9477;51.414;10.362;2022-11-15T04:47:26;9.17;;;6.03;;
18693;SDS011;9477;51.414;10.362;2022-11-15T04:49:30;9.80;;;7.27;;
18693;SDS011;9477;51.414;10.362;2022-11-15T04:51:33;15.83;;;9.00;;
18693;SDS011;9477;51.414;10.362;2022-11-15T04:53:37;12.17;;;6.97;;
18693;SDS011;9477;51.414;10.362;2022-11-15T04:55:40;10.67;;;5.47;;
18693;SDS011;9477;51.414;10.362;2022-11-15T04:57:46;7.90;;;4.97;;
18693;SDS011;9477;51.414;10.362;2022-11-15T04:59:49;7.73;;;4.83;;
18693;SDS011;9477;51.414;10.362;2022-11-15T05:01:52;8.73;;;4.90;;
18693;SDS011;9477;51.414;10.362;2022-11-15T05:03:55;6.57;;;4.57;;
18693;SDS011;9477;51.414;10.362;2022-11-15T05:06:15;7.63;;;5.17;;
18693;SDS011;9477;51.414;10.362;2022-11-15T05:08:18;6.50;;;5.50;;
18693;SDS011;9477;51.414;10.362;2022-11-15T05:10:23;8.93;;;6.53;;
18693;SDS011;9477;51.414;10.362;2022-11-15T05:12:25;15.90;;;9.10;;
18693;SDS011;9477;51.414;10.362;2022-11-15T05:14:28;17.07;;;10.77;;
18693;SDS011;9477;51.414;10.362;2022-11-15T05:16:31;18.33;;;13.33;;
18693;SDS011;9477;51.414;10.362;2022-11-15T05:18:34;14.70;;;9.53;;
18693;SDS011;9477;51.414;10.362;2022-11-15T05:20:37;12.20;;;9.30;;
18693;SDS011;9477;51.414;10.362;2022-11-15T05:22:40;9.07;;;7.30;;
18693;SDS011;9477;51.414;10.362;2022-11-15T05:24:43;12.97;;;8.17;;
18693;SDS011;9477;51.414;10.362;2022-11-15T05:26:47;9.23;;;7.27;;
18693;SDS011;9477;51.414;10.362;2022-11-15T05:28:52;8.20;;;6.63;;
18693;SDS011;9477;51.414;10.362;2022-11-15T05:31:00;8.50;;;6.17;;
18693;SDS011;9477;51.414;10.362;2022-11-15T05:33:03;9.27;;;5.20;;
18693;SDS011;9477;51.414;10.362;2022-11-15T05:35:06;9.53;;;5.87;;
18693;SDS011;9477;51.414;10.362;2022-11-15T05:37:12;7.90;;;5.10;;
18693;SDS011;9477;51.414;10.362;2022-11-15T05:39:16;6.67;;;5.20;;
18693;SDS011;9477;51.414;10.362;2022-11-15T05:41:19;9.47;;;5.10;;
18693;SDS011;9477;51.414;10.362;2022-11-15T05:43:25;9.47;;;5.90;;
18693;SDS011;9477;51.414;10.362;2022-11-15T05:45:29;9.23;;;6.93;;
18693;SDS011;9477;51.414;10.362;2022-11-15T05:47:34;14.00;;;10.33;;
18693;SDS011;9477;51.414;10.362;2022-11-15T05:49:40;13.03;;;9.17;;
18693;SDS011;9477;51.414;10.362;2022-11-15T05:51:45;11.17;;;8.30;;
18693;SDS011;9477;51.414;10.362;2022-11-15T05:53:50;19.27;;;12.47;;
18693;SDS011;9477;51.414;10.362;2022-11-15T05:55:55;12.60;;;7.93;;
18693;SDS011;9477;51.414;10.362;2022-11-15T05:57:58;11.67;;;7.80;;
18693;SDS011;9477;51.414;10.362;2022-11-15T06:00:04;10.23;;;6.70;;
18693;SDS011;9477;51.414;10.362;2022-11-15T06:02:08;8.27;;;5.33;;
18693;SDS011;9477;51.414;10.362;2022-11-15T06:04:11;7.83;;;4.77;;
18693;SDS011;9477;51.414;10.362;2022-11-15T06:06:13;8.87;;;5.33;;
18693;SDS011;9477;51.414;10.362;2022-11-15T06:08:16;8.13;;;4.67;;
18693;SDS011;9477;51.414;10.362;2022-11-15T06:10:19;7.27;;;4.80;;
18693;SDS011;9477;51.414;10.362;2022-11-15T06:12:22;6.13;;;4.40;;
18693;SDS011;9477;51.414;10.362;2022-11-15T06:14:55;5.93;;;4.40;;
18693;SDS011;9477;51.414;10.362;2022-11-15T06:16:59;7.87;;;4.53;;
18693;SDS011;9477;51.414;10.362;2022-11-15T06:19:10;7.87;;;5.20;;
18693;SDS011;9477;51.414;10.362;2022-11-15T06:21:13;10.13;;;4.60;;
18693;SDS011;9477;51.414;10.362;2022-11-15T06:23:15;8.83;;;5.70;;
18693;SDS011;9477;51.414;10.362;2022-11-15T06:25:18;8.83;;;5.10;;
18693;SDS011;9477;51.414;10.362;2022-11-15T06:27:21;8.10;;;5.60;;
18693;SDS011;9477;51.414;10.362;2022-11-15T06:29:24;11.93;;;6.40;;
18693;SDS011;9477;51.414;10.362;2022-11-15T06:31:27;8.57;;;5.83;;
18693;SDS011;9477;51.414;10.362;2022-11-15T06:33:31;8.63;;;6.27;;
18693;SDS011;9477;51.414;10.362;2022-11-15T06:35:35;10.47;;;7.23;;
18693;SDS011;9477;51.414;10.362;2022-11-15T06:37:38;11.60;;;6.67;;
18693;SDS011;9477;51.414;10.362;2022-11-15T06:39:41;8.07;;;6.00;;
18693;SDS011;9477;51.414;10.362;2022-11-15T06:41:44;11.00;;;6.97;;
18693;SDS011;9477;51.414;10.362;2022-11-15T06:43:47;8.63;;;5.60;;
18693;SDS011;9477;51.414;10.362;2022-11-15T06:45:50;12.40;;;7.60;;
18693;SDS011;9477;51.414;10.362;2022-11-15T06:47:53;13.97;;;6.43;;
18693;SDS011;9477;51.414;10.362;2022-11-15T06:49:57;11.93;;;7.20;;
18693;SDS011;9477;51.414;10.362;2022-11-15T06:52:00;11.87;;;7.40;;
18693;SDS011;9477;51.414;10.362;2022-11-15T06:54:03;9.53;;;6.50;;
18693;SDS011;9477;51.414;10.362;2022-11-15T06:56:06;10.77;;;6.43;;
18693;SDS011;9477;51.414;10.362;2022-11-15T06:58:10;9.33;;;6.00;;
18693;SDS011;9477;51.414;10.362;2022-11-15T07:00:13;9.20;;;6.60;;
18693;SDS011;9477;51.414;10.362;2022-11-15T07:02:17;15.17;;;7.97;;
18693;SDS011;9477;51.414;10.362;2022-11-15T07:04:20;13.37;;;7.97;;
18693;SDS011;9477;51.414;10.362;2022-11-15T07:06:24;16.17;;;9.07;;
18693;SDS011;9477;51.414;10.362;2022-11-15T07:08:27;15.37;;;8.40;;
18693;SDS011;9477;51.414;10.362;2022-11-15T07:10:31;16.20;;;8.73;;
18693;SDS011;9477;51.414;10.362;2022-11-15T07:12:34;14.57;;;8.03;;
18693;SDS011;9477;51.414;10.362;2022-11-15T07:14:37;17.30;;;8.10;;
18693;SDS011;9477;51.414;10.362;2022-11-15T07:16:39;17.73;;;9.30;;
18693;SDS011;9477;51.414;10.362;2022-11-15T07:18:42;16.57;;;8.23;;
18693;SDS011;9477;51.414;10.362;2022-11-15T07:20:45;25.83;;;16.17;;
18693;SDS011;9477;51.414;10.362;2022-11-15T07:22:50;29.87;;;17.03;;
18693;SDS011;9477;51.414;10.362;2022-11-15T07:24:52;17.53;;;9.97;;
18693;SDS011;9477;51.414;10.362;2022-11-15T07:26:55;12.80;;;7.30;;
18693;SDS011;9477;51.414;10.362;2022-11-15T07:28:58;14.63;;;7.03;;
18693;SDS011;9477;51.414;10.362;2022-11-15T07:31:02;13.17;;;7.33;;
18693;SDS011;9477;51.414;10.362;2022-11-15T07:33:06;9.67;;;6.07;;
18693;SDS011;9477;51.414;10.362;2022-11-15T07:35:09;11.33;;;6.83;;
18693;SDS011;9477;51.414;10.362;2022-11-15T07:37:13;11.93;;;6.73;;
18693;SDS011;9477;51.414;10.362;2022-11-15T07:39:17;11.40;;;6.83;;
18693;SDS011;9477;51.414;10.362;2022-11-15T07:41:20;13.00;;;7.23;;
18693;SDS011;9477;51.414;10.362;2022-11-15T07:43:22;14.57;;;6.57;;
18693;SDS011;9477;51.414;10.362;2022-11-15T07:45:25;7.97;;;5.87;;
18693;SDS011;9477;51.414;10.362;2022-11-15T07:47:28;10.33;;;5.93;;
18693;SDS011;9477;51.414;10.362;2022-11-15T07:49:31;8.37;;;5.83;;
18693;SDS011;9477;51.414;10.362;2022-11-15T07:51:34;10.43;;;5.70;;
18693;SDS011;9477;51.414;10.362;2022-11-15T07:53:37;10.87;;;6.10;;
18693;SDS011;9477;51.414;10.362;2022-11-15T07:55:41;9.90;;;6.67;;
18693;SDS011;9477;51.414;10.362;2022-11-15T07:57:44;13.67;;;7.60;;
18693;SDS011;9477;51.414;10.362;2022-11-15T07:59:47;14.23;;;7.93;;
18693;SDS011;9477;51.414;10.362;2022-11-15T08:01:50;13.90;;;7.53;;
18693;SDS011;9477;51.414;10.362;2022-11-15T08:03:53;14.73;;;6.60;;
18693;SDS011;9477;51.414;10.362;2022-11-15T08:05:56;9.97;;;5.97;;
18693;SDS011;9477;51.414;10.362;2022-11-15T08:07:59;8.67;;;5.97;;
18693;SDS011;9477;51.414;10.362;2022-11-15T08:10:02;9.57;;;6.07;;
18693;SDS011;9477;51.414;10.362;2022-11-15T08:12:08;10.13;;;6.40;;
18693;SDS011;9477;51.414;10.362;2022-11-15T08:14:11;12.03;;;6.40;;
18693;SDS011;9477;51.414;10.362;2022-11-15T08:16:14;9.43;;;6.60;;
18693;SDS011;9477;51.414;10.362;2022-11-15T08:18:17;10.67;;;6.33;;
18693;SDS011;9477;51.414;10.362;2022-11-15T08:20:20;10.70;;;6.43;;
18693;SDS011;9477;51.414;10.362;2022-11-15T08:22:23;9.20;;;5.90;;
18693;SDS011;9477;51.414;10.362;2022-11-15T08:24:26;8.83;;;5.90;;
18693;SDS011;9477;51.414;10.362;2022-11-15T08:26:29;12.50;;;6.87;;
18693;SDS011;9477;51.414;10.362;2022-11-15T08:28:33;11.00;;;6.10;;
18693;SDS011;9477;51.414;10.362;2022-11-15T08:30:36;9.53;;;5.97;;
18693;SDS011;9477;51.414;10.362;2022-11-15T08:32:43;7.73;;;6.00;;
18693;SDS011;9477;51.414;10.362;2022-11-15T08:34:46;8.17;;;5.83;;
18693;SDS011;9477;51.414;10.362;2022-11-15T08:36:49;7.63;;;6.10;;
18693;SDS011;9477;51.414;10.362;2022-11-15T08:38:52;10.23;;;6.37;;
18693;SDS011;9477;51.414;10.362;2022-11-15T08:40:58;8.80;;;6.53;;
18693;SDS011;9477;51.414;10.362;2022-11-15T08:43:03;11.13;;;6.47;;
18693;SDS011;9477;51.414;10.362;2022-11-15T08:45:08;8.67;;;6.57;;
18693;SDS011;9477;51.414;10.362;2022-11-15T08:47:12;8.83;;;6.47;;
18693;SDS011;9477;51.414;10.362;2022-11-15T08:49:15;10.47;;;6.07;;
18693;SDS011;9477;51.414;10.362;2022-11-15T08:51:18;10.17;;;7.00;;
18693;SDS011;9477;51.414;10.362;2022-11-15T08:53:21;12.80;;;6.87;;
18693;SDS011;9477;51.414;10.362;2022-11-15T08:55:24;10.77;;;6.83;;
18693;SDS011;9477;51.414;10.362;2022-11-15T08:57:28;8.67;;;6.50;;
18693;SDS011;9477;51.414;10.362;2022-11-15T08:59:31;11.63;;;6.63;;
18693;SDS011;9477;51.414;10.362;2022-11-15T09:01:35;9.70;;;6.63;;
18693;SDS011;9477;51.414;10.362;2022-11-15T09:03:39;8.63;;;6.23;;
18693;SDS011;9477;51.414;10.362;2022-11-15T09:05:42;9.40;;;6.87;;
18693;SDS011;9477;51.414;10.362;2022-11-15T09:07:45;12.87;;;7.00;;
18693;SDS011;9477;51.414;10.362;2022-11-15T09:09:47;9.07;;;6.90;;
18693;SDS011;9477;51.414;10.362;2022-11-15T09:11:50;12.33;;;6.13;;
18693;SDS011;9477;51.414;10.362;2022-11-15T09:13:59;7.33;;;5.93;;
18693;SDS011;9477;51.414;10.362;2022-11-15T09:16:02;9.30;;;6.50;;
18693;SDS011;9477;51.414;10.362;2022-11-15T09:18:07;11.53;;;6.87;;
18693;SDS011;9477;51.414;10.362;2022-11-15T09:20:10;8.67;;;6.63;;
18693;SDS011;9477;51.414;10.362;2022-11-15T09:22:13;9.70;;;6.20;;
18693;SDS011;9477;51.414;10.362;2022-11-15T09:24:17;8.97;;;6.53;;
18693;SDS011;9477;51.414;10.362;2022-11-15T09:26:20;11.17;;;6.80;;
18693;SDS011;9477;51.414;10.362;2022-11-15T09:28:23;8.50;;;6.13;;
18693;SDS011;9477;51.414;10.362;2022-11-15T09:30:25;10.60;;;6.47;;
18693;SDS011;9477;51.414;10.362;2022-11-15T09:32:28;7.60;;;6.07;;
18693;SDS011;9477;51.414;10.362;2022-11-15T09:34:40;9.03;;;6.13;;
18693;SDS011;9477;51.414;10.362;2022-11-15T09:36:43;11.30;;;6.30;;
18693;SDS011;9477;51.414;10.362;2022-11-15T09:38:46;7.53;;;5.73;;
18693;SDS011;9477;51.414;10.362;2022-11-15T09:40:50;7.37;;;5.93;;
18693;SDS011;9477;51.414;10.362;2022-11-15T09:43:18;9.63;;;5.83;;
18693;SDS011;9477;51.414;10.362;2022-11-15T09:45:34;8.17;;;5.80;;
18693;SDS011;9477;51.414;10.362;2022-11-15T09:47:56;9.43;;;5.80;;
18693;SDS011;9477;51.414;10.362;2022-11-15T09:50:12;7.87;;;5.40;;
18693;SDS011;9477;51.414;10.362;2022-11-15T09:52:18;11.63;;;5.43;;
18693;SDS011;9477;51.414;10.362;2022-11-15T09:54:26;8.87;;;5.60;;
18693;SDS011;9477;51.414;10.362;2022-11-15T09:56:51;8.20;;;5.03;;
18693;SDS011;9477;51.414;10.362;2022-11-15T09:58:57;9.50;;;4.97;;
18693;SDS011;9477;51.414;10.362;2022-11-15T10:01:16;7.83;;;5.00;;
18693;SDS011;9477;51.414;10.362;2022-11-15T10:03:23;8.00;;;4.73;;
18693;SDS011;9477;51.414;10.362;2022-11-15T10:05:30;11.87;;;5.37;;
18693;SDS011;9477;51.414;10.362;2022-11-15T10:07:44;11.67;;;5.33;;
18693;SDS011;9477;51.414;10.362;2022-11-15T10:09:53;7.73;;;5.53;;
18693;SDS011;9477;51.414;10.362;2022-11-15T10:12:02;9.57;;;5.40;;
18693;SDS011;9477;51.414;10.362;2022-11-15T10:14:08;7.23;;;5.33;;
18693;SDS011;9477;51.414;10.362;2022-11-15T10:16:17;6.77;;;4.80;;
18693;SDS011;9477;51.414;10.362;2022-11-15T10:18:33;7.50;;;5.20;;
18693;SDS011;9477;51.414;10.362;2022-11-15T10:20:42;11.43;;;5.30;;
18693;SDS011;9477;51.414;10.362;2022-11-15T10:22:50;7.60;;;4.80;;
18693;SDS011;9477;51.414;10.362;2022-11-15T10:25:04;6.20;;;4.47;;
18693;SDS011;9477;51.414;10.362;2022-11-15T10:27:18;8.90;;;4.80;;
18693;SDS011;9477;51.414;10.362;2022-11-15T10:29:22;6.00;;;4.40;;
18693;SDS011;9477;51.414;10.362;2022-11-15T10:31:28;5.27;;;3.67;;
18693;SDS011;9477;51.414;10.362;2022-11-15T10:33:32;5.87;;;3.67;;
18693;SDS011;9477;51.414;10.362;2022-11-15T10:35:36;4.83;;;3.30;;
18693;SDS011;9477;51.414;10.362;2022-11-15T10:37:40;5.43;;;3.10;;
18693;SDS011;9477;51.414;10.362;2022-11-15T10:39:43;5.17;;;3.20;;
18693;SDS011;9477;51.414;10.362;2022-11-15T10:41:47;8.10;;;3.23;;
18693;SDS011;9477;51.414;10.362;2022-11-15T10:44:02;4.23;;;3.20;;
18693;SDS011;9477;51.414;10.362;2022-11-15T10:46:16;4.97;;;3.10;;
18693;SDS011;9477;51.414;10.362;2022-11-15T10:48:42;3.83;;;3.07;;
18693;SDS011;9477;51.414;10.362;2022-11-15T10:50:46;7.00;;;3.10;;
18693;SDS011;9477;51.414;10.362;2022-11-15T10:52:52;6.40;;;2.90;;
18693;SDS011;9477;51.414;10.362;2022-11-15T10:54:56;8.33;;;3.17;;
18693;SDS011;9477;51.414;10.362;2022-11-15T10:57:04;5.37;;;2.80;;
18693;SDS011;9477;51.414;10.362;2022-11-15T10:59:14;7.37;;;3.20;;
18693;SDS011;9477;51.414;10.362;2022-11-15T11:01:22;5.60;;;3.00;;
18693;SDS011;9477;51.414;10.362;2022-11-15T11:03:27;4.10;;;3.07;;
18693;SDS011;9477;51.414;10.362;2022-11-15T11:05:35;5.20;;;2.80;;
18693;SDS011;9477;51.414;10.362;2022-11-15T11:07:43;5.43;;;2.90;;
18693;SDS011;9477;51.414;10.362;2022-11-15T11:10:01;3.70;;;2.80;;
18693;SDS011;9477;51.414;10.362;2022-11-15T11:12:27;5.17;;;2.90;;
18693;SDS011;9477;51.414;10.362;2022-11-15T11:14:33;4.40;;;2.83;;
18693;SDS011;9477;51.414;10.362;2022-11-15T11:16:41;4.40;;;2.80;;
18693;SDS011;9477;51.414;10.362;2022-11-15T11:18:49;5.93;;;3.07;;
18693;SDS011;9477;51.414;10.362;2022-11-15T11:21:03;5.13;;;2.83;;
18693;SDS011;9477;51.414;10.362;2022-11-15T11:23:18;4.97;;;2.70;;
18693;SDS011;9477;51.414;10.362;2022-11-15T11:25:34;2.93;;;2.50;;
18693;SDS011;9477;51.414;10.362;2022-11-15T11:27:43;5.40;;;3.47;;
18693;SDS011;9477;51.414;10.362;2022-11-15T11:30:00;6.97;;;3.63;;
18693;SDS011;9477;51.414;10.362;2022-11-15T11:32:13;4.67;;;2.77;;
18693;SDS011;9477;51.414;10.362;2022-11-15T11:34:33;5.33;;;3.23;;
18693;SDS011;9477;51.414;10.362;2022-11-15T11:36:45;4.23;;;3.30;;
18693;SDS011;9477;51.414;10.362;2022-11-15T11:39:00;6.13;;;3.23;;
18693;SDS011;9477;51.414;10.362;2022-11-15T11:43:46;7.73;;;2.60;;
18693;SDS011;9477;51.414;10.362;2022-11-15T11:46:03;4.37;;;2.87;;
18693;SDS011;9477;51.414;10.362;2022-11-15T11:48:19;6.33;;;2.90;;
18693;SDS011;9477;51.414;10.362;2022-11-15T11:50:28;4.47;;;2.83;;
18693;SDS011;9477;51.414;10.362;2022-11-15T11:52:31;5.10;;;3.17;;
18693;SDS011;9477;51.414;10.362;2022-11-15T11:54:42;4.33;;;2.60;;
18693;SDS011;9477;51.414;10.362;2022-11-15T11:56:51;3.67;;;2.90;;
18693;SDS011;9477;51.414;10.362;2022-11-15T11:58:57;4.73;;;2.90;;
18693;SDS011;9477;51.414;10.362;2022-11-15T12:01:12;3.40;;;2.80;;
18693;SDS011;9477;51.414;10.362;2022-11-15T12:03:20;6.13;;;3.00;;
18693;SDS011;9477;51.414;10.362;2022-11-15T12:05:30;4.00;;;2.50;;
18693;SDS011;9477;51.414;10.362;2022-11-15T12:07:39;4.33;;;2.83;;
18693;SDS011;9477;51.414;10.362;2022-11-15T12:09:46;4.33;;;3.00;;
18693;SDS011;9477;51.414;10.362;2022-11-15T12:11:56;4.10;;;2.97;;
18693;SDS011;9477;51.414;10.362;2022-11-15T12:14:09;3.40;;;2.43;;
18693;SDS011;9477;51.414;10.362;2022-11-15T12:16:17;5.23;;;2.70;;
18693;SDS011;9477;51.414;10.362;2022-11-15T12:18:24;3.90;;;2.67;;
18693;SDS011;9477;51.414;10.362;2022-11-15T12:20:29;4.07;;;2.90;;
18693;SDS011;9477;51.414;10.362;2022-11-15T12:22:38;5.37;;;2.80;;
18693;SDS011;9477;51.414;10.362;2022-11-15T12:24:48;4.43;;;3.00;;
18693;SDS011;9477;51.414;10.362;2022-11-15T12:26:57;4.93;;;2.83;;
18693;SDS011;9477;51.414;10.362;2022-11-15T12:29:04;4.87;;;3.00;;
18693;SDS011;9477;51.414;10.362;2022-11-15T12:31:15;7.53;;;3.30;;
18693;SDS011;9477;51.414;10.362;2022-11-15T12:33:34;4.73;;;2.90;;
18693;SDS011;9477;51.414;10.362;2022-11-15T12:35:40;4.53;;;3.10;;
18693;SDS011;9477;51.414;10.362;2022-11-15T12:37:47;4.83;;;3.00;;
18693;SDS011;9477;51.414;10.362;2022-11-15T12:40:17;5.87;;;3.43;;
18693;SDS011;9477;51.414;10.362;2022-11-15T12:42:34;4.60;;;3.00;;
18693;SDS011;9477;51.414;10.362;2022-11-15T12:44:57;7.07;;;3.20;;
18693;SDS011;9477;51.414;10.362;2022-11-15T12:47:03;5.10;;;3.17;;